Terminal Aerodrome Forecast
Issued by NWS Burlington, VT

Home | Current Version | Previous Version | Text Only | Print | Product List | Glossary On
Versions: 1 2 3 4 5 6 7 8 9 10 11 12 13 14 15 16
791
FTUS41 KBTV 231731
TAFBTV
TAF
KBTV 231731Z 2318/2418 32009G16KT P6SM SKC
     FM240000 VRB03KT P6SM SKC
     FM240700 16005KT P6SM BKN070 OVC150
     FM241100 18009KT P6SM VCSH OVC060
     FM241400 18011G20KT 1 1/2SM -SN BR OVC025
     FM241600 18012G22KT 2SM -RASN BR OVC015=

USA.gov is the U.S. government's official web portal to all federal, state and local government web resources and services.